Terminal Aerodrome Forecast
Issued by NWS

Home | Current Version | Previous Version | Text Only | Print | Product List | Glossary On
Versions: 1 2 3 4 5 6 7 8 9 10 11 12 13 14 15 16 17 18
000
FTUS42 KGSP 211700
TAFAND
TAF
KAND 211735Z 2118/2218 27010G18KT P6SM SCT050
     FM212300 27008KT P6SM SCT060 BKN250
     FM220900 35004KT P6SM SCT050 BKN250
     FM221500 05010KT P6SM SCT050 BKN250=

USA.gov is the U.S. government's official web portal to all federal, state and local government web resources and services.